createdAt,value
2023-04-18T00:00:02.014Z,7.62
2023-04-18T00:01:02.045Z,7.60
2023-04-18T00:02:02.236Z,7.55
2023-04-18T00:03:04.136Z,7.51
2023-04-18T00:04:02.445Z,7.51
2023-04-18T00:05:02.627Z,7.48
2023-04-18T00:06:02.439Z,7.45
2023-04-18T00:07:02.470Z,7.44
2023-04-18T00:08:02.557Z,7.42
2023-04-18T00:09:02.661Z,7.45
2023-04-18T00:10:02.733Z,7.44
2023-04-18T00:11:02.825Z,7.44
2023-04-18T00:12:02.910Z,7.45
2023-04-18T00:13:02.998Z,7.48
2023-04-18T00:14:03.092Z,7.51
2023-04-18T00:15:03.137Z,7.50
2023-04-18T00:16:03.256Z,7.50
2023-04-18T00:17:03.371Z,7.48
2023-04-18T00:18:03.448Z,7.47
2023-04-18T00:19:03.457Z,7.44
2023-04-18T00:20:03.570Z,7.41
2023-04-18T00:21:03.668Z,7.36
2023-04-18T00:22:03.731Z,7.32
2023-04-18T00:23:03.807Z,7.24
2023-04-18T00:24:03.900Z,7.19
2023-04-18T00:25:03.959Z,7.16
2023-04-18T00:26:04.060Z,7.15
2023-04-18T00:27:04.127Z,7.15
2023-04-18T00:28:04.237Z,7.16
2023-04-18T00:29:04.274Z,7.12
2023-04-18T00:30:04.366Z,7.15
2023-04-18T00:31:04.463Z,7.14
2023-04-18T00:32:04.511Z,7.16
2023-04-18T00:33:04.630Z,7.16
2023-04-18T00:34:04.700Z,7.16
2023-04-18T00:35:04.796Z,7.11
2023-04-18T00:36:04.885Z,7.08
2023-04-18T00:37:04.918Z,7.00
2023-04-18T00:38:04.990Z,6.96
2023-04-18T00:39:05.052Z,6.94
2023-04-18T00:40:05.116Z,6.89
2023-04-18T00:41:05.232Z,6.86
2023-04-18T00:42:05.274Z,6.83
2023-04-18T00:43:05.348Z,6.83
2023-04-18T00:44:05.437Z,6.82
2023-04-18T00:45:05.492Z,6.81
2023-04-18T00:46:05.660Z,6.79
2023-04-18T00:47:05.661Z,6.81
2023-04-18T00:48:05.801Z,6.82
2023-04-18T00:49:05.826Z,6.78
2023-04-18T00:50:05.905Z,6.72
2023-04-18T00:51:05.979Z,6.65
2023-04-18T00:52:06.047Z,6.64
2023-04-18T00:53:06.124Z,6.61
2023-04-18T00:54:06.203Z,6.58
2023-04-18T00:55:06.278Z,6.57
2023-04-18T00:56:06.373Z,6.60
2023-04-18T00:57:06.412Z,6.58
2023-04-18T00:58:06.498Z,6.61
2023-04-18T00:59:06.578Z,6.61
2023-04-18T01:00:06.660Z,6.60
2023-04-18T01:01:06.779Z,6.60
2023-04-18T01:02:06.857Z,6.55
2023-04-18T01:03:07.064Z,6.54
2023-04-18T01:04:07.042Z,6.54
2023-04-18T01:05:07.055Z,6.54
2023-04-18T01:06:07.163Z,6.50
2023-04-18T01:07:07.205Z,6.46
2023-04-18T01:08:07.302Z,6.42
2023-04-18T01:09:07.376Z,6.43
2023-04-18T01:10:07.462Z,6.38
2023-04-18T01:11:07.566Z,6.35
2023-04-18T01:12:07.695Z,6.36
2023-04-18T01:13:07.698Z,6.35
2023-04-18T01:14:07.799Z,6.35
2023-04-18T01:15:07.879Z,6.33
2023-04-18T01:16:08.016Z,6.30
2023-04-18T01:17:08.040Z,6.27
2023-04-18T01:18:08.114Z,6.28
2023-04-18T01:19:08.182Z,6.30
2023-04-18T01:20:08.277Z,6.25
2023-04-18T01:21:08.375Z,6.27
2023-04-18T01:22:08.458Z,6.21
2023-04-18T01:23:08.524Z,6.17
2023-04-18T01:24:08.637Z,6.06
2023-04-18T01:25:08.682Z,6.01
2023-04-18T01:26:08.829Z,5.95
2023-04-18T01:27:08.862Z,5.90
2023-04-18T01:28:08.962Z,5.88
2023-04-18T01:29:08.998Z,5.90
2023-04-18T01:30:09.090Z,5.88
2023-04-18T01:31:09.208Z,5.85
2023-04-18T01:32:09.255Z,5.84
2023-04-18T01:33:09.334Z,5.87
2023-04-18T01:34:09.420Z,5.85
2023-04-18T01:35:09.556Z,5.90
2023-04-18T01:36:09.620Z,5.92
2023-04-18T01:37:09.689Z,5.95
2023-04-18T01:38:09.781Z,5.93
2023-04-18T01:39:09.857Z,5.87
2023-04-18T01:40:09.974Z,5.85
2023-04-18T01:41:10.030Z,5.83
2023-04-18T01:42:10.073Z,5.78
2023-04-18T01:43:10.161Z,5.77
2023-04-18T01:44:10.262Z,5.75
2023-04-18T01:45:10.344Z,5.70
2023-04-18T01:46:10.504Z,5.69
2023-04-18T01:47:10.512Z,5.66
2023-04-18T01:48:10.618Z,5.70
2023-04-18T01:49:10.676Z,5.73
2023-04-18T01:50:10.812Z,5.74
2023-04-18T01:51:10.868Z,5.77
2023-04-18T01:52:10.924Z,5.77
2023-04-18T01:53:11.002Z,5.78
2023-04-18T01:54:11.153Z,5.75
2023-04-18T01:55:11.214Z,5.77
2023-04-18T01:56:11.279Z,5.74
2023-04-18T01:57:11.344Z,5.66
2023-04-18T01:58:11.442Z,5.69
2023-04-18T01:59:11.525Z,5.66
2023-04-18T02:00:11.596Z,5.67
2023-04-18T02:01:11.690Z,5.65
2023-04-18T02:02:11.828Z,5.65
2023-04-18T02:03:11.945Z,5.60
2023-04-18T02:04:12.119Z,5.63
2023-04-18T02:05:12.043Z,5.59
2023-04-18T02:06:12.078Z,5.58
2023-04-18T02:07:12.143Z,5.51
2023-04-18T02:08:12.228Z,5.47
2023-04-18T02:09:12.290Z,5.44
2023-04-18T02:10:12.380Z,5.44
2023-04-18T02:11:12.467Z,5.42
2023-04-18T02:12:12.538Z,5.37
2023-04-18T02:13:12.610Z,5.37
2023-04-18T02:14:12.976Z,5.32
2023-04-18T02:15:12.805Z,5.29
2023-04-18T02:16:12.960Z,5.24
2023-04-18T02:17:12.956Z,5.26
2023-04-18T02:18:13.020Z,5.23
2023-04-18T02:19:13.088Z,5.24
2023-04-18T02:20:13.174Z,5.26
2023-04-18T02:21:13.249Z,5.23
2023-04-18T02:22:13.325Z,5.19
2023-04-18T02:23:13.402Z,5.17
2023-04-18T02:24:13.650Z,5.14
2023-04-18T02:25:13.594Z,5.11
2023-04-18T02:26:13.700Z,5.06
2023-04-18T02:27:13.754Z,5.08
2023-04-18T02:28:13.804Z,5.08
2023-04-18T02:29:13.904Z,5.08
2023-04-18T02:30:13.976Z,5.11
2023-04-18T02:31:14.148Z,5.12
2023-04-18T02:32:14.142Z,5.15
2023-04-18T02:33:14.253Z,5.15
2023-04-18T02:34:14.621Z,5.15
2023-04-18T02:35:14.407Z,5.17
2023-04-18T02:36:14.510Z,5.15
2023-04-18T02:37:14.609Z,5.14
2023-04-18T02:38:14.648Z,5.12
2023-04-18T02:39:14.753Z,5.04
2023-04-18T02:40:14.770Z,5.02
2023-04-18T02:41:14.876Z,5.02
2023-04-18T02:42:14.954Z,4.99
2023-04-18T02:43:15.044Z,4.94
2023-04-18T02:44:15.326Z,4.97
2023-04-18T02:45:15.200Z,4.94
2023-04-18T02:46:15.380Z,4.96
2023-04-18T02:47:15.353Z,4.96
2023-04-18T02:48:15.516Z,4.93
2023-04-18T02:49:15.519Z,4.90
2023-04-18T02:50:15.571Z,4.88
2023-04-18T02:51:15.660Z,4.87
2023-04-18T02:52:15.743Z,4.84
2023-04-18T02:53:15.830Z,4.83
2023-04-18T02:54:16.094Z,4.83
2023-04-18T02:55:16.116Z,4.83
2023-04-18T02:56:16.133Z,4.86
2023-04-18T02:57:16.167Z,4.91
2023-04-18T02:58:16.266Z,4.91
2023-04-18T02:59:16.356Z,4.87
2023-04-18T03:00:16.472Z,4.91
2023-04-18T03:01:16.610Z,4.91
2023-04-18T03:02:16.676Z,4.93
2023-04-18T03:03:16.739Z,4.91
2023-04-18T03:04:16.907Z,4.91
2023-04-18T03:05:16.869Z,4.90
2023-04-18T03:06:16.954Z,4.86
2023-04-18T03:07:17.012Z,4.79
2023-04-18T03:08:17.085Z,4.75
2023-04-18T03:09:17.158Z,4.69
2023-04-18T03:10:17.236Z,4.67
2023-04-18T03:11:17.302Z,4.64
2023-04-18T03:12:17.391Z,4.61
2023-04-18T03:13:17.485Z,4.61
2023-04-18T03:14:17.557Z,4.59
2023-04-18T03:15:17.652Z,4.57
2023-04-18T03:16:17.750Z,4.51
2023-04-18T03:17:17.780Z,4.53
2023-04-18T03:18:17.867Z,4.57
2023-04-18T03:19:17.933Z,4.59
2023-04-18T03:20:18.038Z,4.59
2023-04-18T03:21:18.099Z,4.59
2023-04-18T03:22:18.153Z,4.54
2023-04-18T03:23:18.235Z,4.50
2023-04-18T03:24:18.385Z,4.51
2023-04-18T03:25:18.417Z,4.54
2023-04-18T03:26:18.510Z,4.53
2023-04-18T03:27:18.560Z,4.51
2023-04-18T03:28:18.654Z,4.51
2023-04-18T03:29:18.724Z,4.50
2023-04-18T03:30:18.820Z,4.51
2023-04-18T03:31:18.963Z,4.51
2023-04-18T03:32:19.135Z,4.50
2023-04-18T03:33:19.058Z,4.49
2023-04-18T03:34:19.123Z,4.47
2023-04-18T03:35:19.215Z,4.49
2023-04-18T03:36:19.331Z,4.47
2023-04-18T03:37:19.380Z,4.47
2023-04-18T03:38:19.492Z,4.44
2023-04-18T03:39:19.569Z,4.43
2023-04-18T03:40:19.660Z,4.44
2023-04-18T03:41:19.770Z,4.42
2023-04-18T03:42:19.834Z,4.39
2023-04-18T03:43:19.894Z,4.36
2023-04-18T03:44:20.005Z,4.36
2023-04-18T03:45:20.070Z,4.32
2023-04-18T03:46:20.194Z,4.28
2023-04-18T03:47:20.262Z,4.28
2023-04-18T03:48:20.305Z,4.28
2023-04-18T03:49:20.371Z,4.31
2023-04-18T03:50:20.483Z,4.31
2023-04-18T03:51:20.571Z,4.34
2023-04-18T03:52:20.633Z,4.31
2023-04-18T03:53:20.715Z,4.32
2023-04-18T03:54:20.831Z,4.35
2023-04-18T03:55:20.893Z,4.35
2023-04-18T03:56:21.022Z,4.34
2023-04-18T03:57:21.057Z,4.32
2023-04-18T03:58:22.617Z,4.26
2023-04-18T03:59:21.238Z,4.21
2023-04-18T04:00:21.339Z,4.21
2023-04-18T04:01:21.416Z,4.25
2023-04-18T04:02:21.674Z,4.25
2023-04-18T04:03:21.625Z,4.24
2023-04-18T04:04:21.728Z,4.17
2023-04-18T04:05:21.714Z,4.16
2023-04-18T04:06:23.406Z,4.16
2023-04-18T04:07:21.898Z,4.14
2023-04-18T04:08:21.968Z,4.10
2023-04-18T04:09:22.036Z,4.10
2023-04-18T04:10:22.127Z,4.08
2023-04-18T04:11:22.202Z,4.07
2023-04-18T04:12:22.332Z,4.08
2023-04-18T04:13:22.393Z,4.08
2023-04-18T04:14:22.494Z,4.06
2023-04-18T04:15:22.596Z,4.07
2023-04-18T04:16:22.773Z,4.06
2023-04-18T04:17:22.808Z,4.04
2023-04-18T04:18:22.851Z,3.99
2023-04-18T04:19:22.904Z,3.98
2023-04-18T04:20:23.033Z,3.99
2023-04-18T04:21:23.066Z,4.04
2023-04-18T04:22:23.159Z,4.02
2023-04-18T04:23:23.233Z,4.02
2023-04-18T04:24:23.329Z,4.00
2023-04-18T04:25:23.390Z,4.00
2023-04-18T04:26:23.493Z,3.96
2023-04-18T04:27:23.565Z,3.96
2023-04-18T04:28:23.638Z,3.96
2023-04-18T04:29:23.689Z,4.00
2023-04-18T04:30:23.768Z,4.02
2023-04-18T04:31:23.820Z,4.02
2023-04-18T04:32:23.967Z,3.99
2023-04-18T04:33:23.980Z,4.04
2023-04-18T04:34:24.062Z,4.07
2023-04-18T04:35:24.179Z,4.07
2023-04-18T04:36:24.281Z,4.04
2023-04-18T04:37:24.375Z,4.00
2023-04-18T04:38:24.463Z,3.99
2023-04-18T04:39:24.544Z,4.04
2023-04-18T04:40:24.600Z,4.04
2023-04-18T04:41:24.688Z,4.07
2023-04-18T04:42:24.799Z,4.04
2023-04-18T04:43:24.832Z,4.07
2023-04-18T04:44:24.970Z,4.07
2023-04-18T04:45:24.994Z,4.07
2023-04-18T04:46:25.163Z,4.07
2023-04-18T04:47:25.218Z,4.07
2023-04-18T04:48:25.260Z,4.07
2023-04-18T04:49:25.320Z,4.06
2023-04-18T04:50:25.500Z,4.02
2023-04-18T04:51:25.548Z,4.02
2023-04-18T04:52:25.618Z,4.00
2023-04-18T04:53:25.680Z,4.02
2023-04-18T04:54:25.769Z,4.04
2023-04-18T04:55:25.848Z,4.04
2023-04-18T04:56:25.944Z,4.02
2023-04-18T04:57:26.046Z,4.00
2023-04-18T04:58:26.123Z,4.02
2023-04-18T04:59:26.207Z,4.00
2023-04-18T05:00:26.293Z,4.00
2023-04-18T05:01:26.465Z,4.00
2023-04-18T05:02:26.565Z,4.02
2023-04-18T05:03:26.740Z,4.02
2023-04-18T05:04:26.848Z,3.96
2023-04-18T05:05:26.735Z,3.95
2023-04-18T05:06:26.813Z,3.98
2023-04-18T05:07:26.923Z,3.99
2023-04-18T05:08:26.981Z,4.06
2023-04-18T05:09:27.069Z,4.08
2023-04-18T05:10:27.240Z,4.13
2023-04-18T05:11:27.220Z,4.17
2023-04-18T05:12:27.327Z,4.20
2023-04-18T05:13:27.392Z,4.13
2023-04-18T05:14:27.490Z,4.17
2023-04-18T05:15:27.572Z,4.18
2023-04-18T05:16:27.691Z,4.20
2023-04-18T05:17:27.792Z,4.25
2023-04-18T05:18:27.875Z,4.26
2023-04-18T05:19:27.943Z,4.29
2023-04-18T05:20:28.035Z,4.29
2023-04-18T05:21:28.114Z,4.31
2023-04-18T05:22:28.229Z,4.34
2023-04-18T05:23:28.302Z,4.32
2023-04-18T05:24:28.470Z,4.31
2023-04-18T05:25:28.474Z,4.32
2023-04-18T05:26:28.578Z,4.32
2023-04-18T05:27:28.659Z,4.35
2023-04-18T05:28:28.715Z,4.35
2023-04-18T05:29:28.779Z,4.43
2023-04-18T05:30:28.876Z,4.47
2023-04-18T05:31:29.081Z,4.49
2023-04-18T05:32:29.088Z,4.51
2023-04-18T05:33:29.129Z,4.54
2023-04-18T05:34:29.182Z,4.61
2023-04-18T05:35:29.246Z,4.62
2023-04-18T05:36:29.361Z,4.64
2023-04-18T05:37:29.430Z,4.67
2023-04-18T05:38:29.504Z,4.67
2023-04-18T05:39:29.587Z,4.68
2023-04-18T05:40:29.693Z,4.72
2023-04-18T05:41:29.788Z,4.71
2023-04-18T05:42:29.891Z,4.74
2023-04-18T05:43:29.935Z,4.79
2023-04-18T05:44:30.037Z,4.79
2023-04-18T05:45:30.125Z,4.83
2023-04-18T05:46:30.241Z,4.88
2023-04-18T05:47:30.422Z,4.91
2023-04-18T05:48:30.391Z,4.96
2023-04-18T05:49:30.462Z,5.02
2023-04-18T05:50:30.539Z,5.08
2023-04-18T05:51:30.619Z,5.14
2023-04-18T05:52:30.724Z,5.20
2023-04-18T05:53:30.779Z,5.26
2023-04-18T05:54:30.876Z,5.30
2023-04-18T05:55:30.934Z,5.35
2023-04-18T05:56:31.073Z,5.38
2023-04-18T05:57:31.141Z,5.44
2023-04-18T05:58:31.198Z,5.51
2023-04-18T05:59:31.285Z,5.56
2023-04-18T06:00:31.496Z,5.62
2023-04-18T06:01:31.437Z,5.67
2023-04-18T06:02:31.701Z,5.75
2023-04-18T06:03:31.793Z,5.83
2023-04-18T06:04:31.904Z,5.85
2023-04-18T06:05:32.190Z,5.84
2023-04-18T06:06:31.806Z,5.93
2023-04-18T06:07:31.918Z,5.99
2023-04-18T06:08:31.950Z,6.02
2023-04-18T06:09:32.015Z,6.08
2023-04-18T06:10:32.097Z,6.16
2023-04-18T06:11:32.147Z,6.24
2023-04-18T06:12:32.267Z,6.28
2023-04-18T06:13:32.325Z,6.36
2023-04-18T06:14:32.439Z,6.42
2023-04-18T06:15:32.472Z,6.51
2023-04-18T06:16:32.595Z,6.58
2023-04-18T06:17:32.702Z,6.63
2023-04-18T06:18:32.782Z,6.73
2023-04-18T06:19:32.814Z,6.86
2023-04-18T06:20:32.916Z,7.15
2023-04-18T06:21:32.948Z,7.66
2023-04-18T06:22:33.061Z,8.36
2023-04-18T06:23:33.113Z,9.03
2023-04-18T06:24:33.198Z,9.77
2023-04-18T06:25:33.269Z,10.39
2023-04-18T06:26:33.360Z,10.94
2023-04-18T06:27:33.473Z,11.35
2023-04-18T06:28:33.520Z,11.70
2023-04-18T06:29:33.771Z,12.22
2023-04-18T06:30:33.689Z,12.84
2023-04-18T06:31:33.793Z,13.28
2023-04-18T06:32:33.888Z,13.63
2023-04-18T06:33:33.915Z,13.93
2023-04-18T06:34:33.975Z,14.30
2023-04-18T06:35:34.086Z,14.72
2023-04-18T06:36:34.142Z,15.13
2023-04-18T06:37:34.301Z,15.56
2023-04-18T06:38:34.330Z,15.81
2023-04-18T06:39:34.412Z,15.95
2023-04-18T06:40:34.487Z,16.34
2023-04-18T06:41:34.553Z,16.73
2023-04-18T06:42:34.623Z,17.14
2023-04-18T06:43:34.696Z,17.00
2023-04-18T06:44:34.773Z,17.24
2023-04-18T06:45:34.914Z,17.65
2023-04-18T06:46:34.979Z,18.04
2023-04-18T06:47:35.143Z,18.35
2023-04-18T06:48:35.135Z,18.64
2023-04-18T06:49:35.244Z,18.79
2023-04-18T06:50:35.306Z,18.99
2023-04-18T06:51:35.398Z,19.17
2023-04-18T06:52:35.508Z,19.27
2023-04-18T06:53:35.556Z,19.52
2023-04-18T06:54:35.634Z,19.70
2023-04-18T06:55:35.733Z,19.72
2023-04-18T06:56:36.610Z,19.42
2023-04-18T06:57:35.928Z,19.06
2023-04-18T06:58:35.995Z,18.90
2023-04-18T06:59:36.088Z,19.02
2023-04-18T07:00:36.157Z,19.57
2023-04-18T07:01:36.261Z,20.13
2023-04-18T07:02:36.483Z,20.71
2023-04-18T07:03:36.625Z,21.31
2023-04-18T07:04:36.520Z,20.79
2023-04-18T07:05:36.581Z,20.60
2023-04-18T07:06:36.656Z,20.68
2023-04-18T07:07:36.769Z,20.82
2023-04-18T07:08:36.813Z,21.05
2023-04-18T07:09:36.895Z,20.91
2023-04-18T07:10:36.982Z,20.98
2023-04-18T07:11:37.059Z,20.91
2023-04-18T07:12:37.172Z,20.91
2023-04-18T07:13:37.212Z,20.85
2023-04-18T07:14:37.263Z,20.93
2023-04-18T07:15:37.347Z,20.37
2023-04-18T07:16:37.448Z,20.33
2023-04-18T07:17:37.561Z,20.30
2023-04-18T07:18:38.536Z,20.26
2023-04-18T07:19:37.694Z,19.94
2023-04-18T07:20:37.773Z,20.12
2023-04-18T07:21:37.854Z,20.17
2023-04-18T07:22:37.961Z,20.31
2023-04-18T07:23:38.003Z,20.73
2023-04-18T07:24:38.084Z,21.18
2023-04-18T07:25:38.177Z,21.40
2023-04-18T07:26:38.257Z,21.61
2023-04-18T07:27:38.402Z,21.46
2023-04-18T07:28:38.418Z,21.56
2023-04-18T07:29:38.531Z,21.38
2023-04-18T07:30:38.615Z,21.51
2023-04-18T07:31:38.675Z,21.09
2023-04-18T07:32:38.888Z,20.91
2023-04-18T07:33:38.867Z,20.75
2023-04-18T07:34:38.937Z,20.69
2023-04-18T07:35:39.020Z,20.01
2023-04-18T07:36:39.094Z,19.42
2023-04-18T07:37:39.212Z,19.65
2023-04-18T07:38:39.238Z,19.16
2023-04-18T07:39:39.324Z,19.20
2023-04-18T07:40:39.427Z,19.43
2023-04-18T07:41:39.496Z,18.49
2023-04-18T07:42:39.614Z,17.89
2023-04-18T07:43:39.659Z,18.32
2023-04-18T07:44:39.736Z,17.77
2023-04-18T07:45:39.832Z,17.14
2023-04-18T07:46:40.003Z,16.92
2023-04-18T07:47:40.102Z,16.78
2023-04-18T07:48:40.079Z,16.34
2023-04-18T07:49:40.157Z,15.98
2023-04-18T07:50:40.239Z,15.62
2023-04-18T07:51:40.318Z,15.07
2023-04-18T07:52:40.408Z,14.53
2023-04-18T07:53:40.480Z,14.31
2023-04-18T07:54:40.555Z,14.19
2023-04-18T07:55:40.632Z,14.02
2023-04-18T07:56:40.696Z,13.81
2023-04-18T07:57:40.878Z,13.59
2023-04-18T07:58:40.887Z,13.50
2023-04-18T07:59:40.975Z,13.50
2023-04-18T08:00:41.041Z,13.46
2023-04-18T08:01:41.129Z,13.46
2023-04-18T08:02:41.538Z,12.85
2023-04-18T08:03:41.377Z,12.51
2023-04-18T08:04:41.519Z,12.01
2023-04-18T08:05:41.517Z,11.94
2023-04-18T08:06:41.545Z,11.30
2023-04-18T08:07:41.647Z,10.83
2023-04-18T08:08:41.708Z,11.03
2023-04-18T08:09:41.779Z,12.11
2023-04-18T08:10:41.860Z,12.40
2023-04-18T08:11:41.929Z,12.56
2023-04-18T08:12:42.015Z,12.22
2023-04-18T08:13:42.099Z,12.23
2023-04-18T08:14:42.167Z,12.36
2023-04-18T08:15:42.328Z,12.48
2023-04-18T08:16:42.369Z,12.23
2023-04-18T08:17:42.520Z,11.88
2023-04-18T08:18:42.514Z,11.74
2023-04-18T08:19:42.585Z,11.81
2023-04-18T08:20:42.670Z,12.26
2023-04-18T08:21:42.757Z,12.34
2023-04-18T08:23:01.304Z,12.46
2023-04-18T08:23:42.938Z,12.44
2023-04-18T08:24:57.210Z,12.26
2023-04-18T08:25:43.126Z,12.19
2023-04-18T08:26:43.213Z,12.19
2023-04-18T08:27:43.336Z,12.18
2023-04-18T08:28:45.973Z,12.19
2023-04-18T08:29:43.460Z,11.87
2023-04-18T08:30:43.532Z,11.49
2023-04-18T08:31:43.695Z,11.46
2023-04-18T08:32:43.785Z,11.60
2023-04-18T08:33:43.800Z,11.63
2023-04-18T08:34:43.837Z,11.48
2023-04-18T08:35:43.963Z,11.41
2023-04-18T08:36:44.089Z,11.30
2023-04-18T08:37:44.102Z,11.21
2023-04-18T08:38:44.171Z,11.06
2023-04-18T08:39:44.258Z,10.95
2023-04-18T08:40:44.317Z,10.80
2023-04-18T08:41:44.431Z,10.88
2023-04-18T08:42:44.514Z,11.01
2023-04-18T08:43:44.574Z,11.13
2023-04-18T08:44:44.636Z,11.26
2023-04-18T08:45:44.835Z,11.45
2023-04-18T08:46:44.835Z,11.62
2023-04-18T08:47:44.996Z,11.77
2023-04-18T08:48:45.014Z,11.82
2023-04-18T08:49:45.094Z,11.85
2023-04-18T08:50:45.177Z,11.87
2023-04-18T08:51:45.261Z,11.94
2023-04-18T08:52:45.346Z,12.04
2023-04-18T08:53:45.440Z,12.23
2023-04-18T08:54:45.514Z,12.37
2023-04-18T08:55:45.612Z,12.22
2023-04-18T08:56:45.690Z,11.78
2023-04-18T08:57:45.793Z,11.28
2023-04-18T08:58:45.863Z,11.33
2023-04-18T08:59:47.189Z,11.33
2023-04-18T09:00:46.023Z,10.98
2023-04-18T09:01:46.216Z,10.90
2023-04-18T09:02:46.269Z,11.03
2023-04-18T09:03:46.303Z,11.01
2023-04-18T09:04:46.351Z,11.05
2023-04-18T09:05:46.418Z,11.23
2023-04-18T09:06:46.490Z,11.60
2023-04-18T09:07:46.599Z,11.57
2023-04-18T09:08:46.622Z,11.56
2023-04-18T09:09:46.719Z,11.70
2023-04-18T09:10:46.934Z,11.85
2023-04-18T09:11:46.883Z,12.07
2023-04-18T09:12:46.964Z,12.22
2023-04-18T09:13:47.044Z,12.34
2023-04-18T09:14:47.144Z,12.03
2023-04-18T09:15:47.205Z,11.94
2023-04-18T09:16:47.300Z,12.05
2023-04-18T09:17:47.377Z,12.21
2023-04-18T09:18:47.378Z,12.38
2023-04-18T09:19:47.468Z,12.49
2023-04-18T09:20:47.570Z,12.40
2023-04-18T09:21:47.636Z,12.38
2023-04-18T09:22:47.734Z,12.29
2023-04-18T09:23:47.807Z,12.19
2023-04-18T09:24:47.870Z,11.93
2023-04-18T09:25:48.006Z,11.85
2023-04-18T09:26:48.023Z,12.07
2023-04-18T09:27:48.164Z,12.30
2023-04-18T09:28:48.208Z,12.38
2023-04-18T09:29:48.306Z,12.40
2023-04-18T09:30:48.443Z,12.41
2023-04-18T09:31:48.455Z,12.26
2023-04-18T09:32:48.566Z,12.22
2023-04-18T09:33:48.607Z,12.15
2023-04-18T09:34:48.678Z,12.16
2023-04-18T09:35:48.766Z,12.18
2023-04-18T09:36:48.894Z,12.21
2023-04-18T09:37:49.001Z,12.25
2023-04-18T09:38:49.002Z,12.26
2023-04-18T09:39:49.086Z,12.25
2023-04-18T09:40:49.173Z,12.25
2023-04-18T09:41:49.239Z,12.25
2023-04-18T09:42:49.329Z,12.30
2023-04-18T09:43:49.412Z,12.21
2023-04-18T09:44:49.473Z,12.18
2023-04-18T09:45:49.595Z,12.19
2023-04-18T09:46:49.707Z,12.15
2023-04-18T09:47:49.806Z,12.13
2023-04-18T09:48:49.807Z,12.08
2023-04-18T09:49:49.880Z,12.16
2023-04-18T09:50:49.971Z,12.25
2023-04-18T09:51:50.050Z,12.29
2023-04-18T09:52:50.152Z,12.15
2023-04-18T09:53:50.291Z,12.29
2023-04-18T09:54:50.284Z,12.52
2023-04-18T09:55:50.367Z,12.70
2023-04-18T09:56:50.434Z,13.29
2023-04-18T09:57:50.531Z,14.02
2023-04-18T09:58:50.570Z,14.69
2023-04-18T09:59:50.649Z,14.83
2023-04-18T10:00:50.734Z,14.97
2023-04-18T10:01:50.947Z,15.74
2023-04-18T10:02:51.059Z,16.29
2023-04-18T10:03:51.056Z,16.54
2023-04-18T10:04:51.190Z,17.00
2023-04-18T10:05:51.266Z,17.38
2023-04-18T10:06:51.239Z,17.63
2023-04-18T10:07:51.356Z,17.22
2023-04-18T10:08:51.383Z,16.92
2023-04-18T10:09:51.471Z,16.88
2023-04-18T10:10:51.561Z,16.51
2023-04-18T10:11:51.643Z,16.04
2023-04-18T10:12:51.732Z,15.25
2023-04-18T10:13:51.802Z,14.74
2023-04-18T10:14:51.870Z,14.66
2023-04-18T10:15:51.991Z,14.67
2023-04-18T10:16:52.012Z,14.48
2023-04-18T10:18:03.317Z,14.34
2023-04-18T10:18:52.168Z,14.61
2023-04-18T10:19:52.249Z,14.71
2023-04-18T10:20:52.304Z,15.20
2023-04-18T10:21:52.387Z,15.89
2023-04-18T10:22:52.474Z,15.93
2023-04-18T10:23:52.548Z,15.59
2023-04-18T10:24:52.616Z,15.43
2023-04-18T10:25:52.704Z,15.40
2023-04-18T10:26:52.808Z,15.49
2023-04-18T10:27:52.878Z,15.67
2023-04-18T10:28:53.473Z,15.66
2023-04-18T10:29:53.052Z,15.48
2023-04-18T10:30:53.059Z,15.01
2023-04-18T10:31:53.210Z,14.64
2023-04-18T10:32:53.266Z,14.69
2023-04-18T10:34:18.479Z,14.83
2023-04-18T10:34:53.438Z,14.91
2023-04-18T10:35:53.507Z,14.61
2023-04-18T10:36:53.571Z,14.48
2023-04-18T10:37:53.672Z,14.46
2023-04-18T10:38:53.735Z,14.45
2023-04-18T10:39:53.861Z,14.44
2023-04-18T10:40:53.898Z,13.91
2023-04-18T10:41:53.978Z,13.69
2023-04-18T10:42:54.082Z,13.62
2023-04-18T10:43:54.171Z,13.65
2023-04-18T10:44:54.260Z,13.73
2023-04-18T10:45:54.333Z,13.62
2023-04-18T10:46:54.469Z,13.53
2023-04-18T10:47:54.584Z,13.51
2023-04-18T10:48:54.606Z,13.62
2023-04-18T10:49:54.671Z,13.66
2023-04-18T10:50:54.755Z,13.69
2023-04-18T10:51:54.864Z,13.61
2023-04-18T10:52:54.919Z,13.68
2023-04-18T10:53:54.977Z,13.86
2023-04-18T10:54:56.938Z,14.04
2023-04-18T10:55:55.128Z,14.20
2023-04-18T10:56:55.213Z,14.29
2023-04-18T10:57:55.281Z,14.39
2023-04-18T10:58:55.357Z,14.46
2023-04-18T10:59:55.430Z,14.54
2023-04-18T11:00:55.541Z,14.61
2023-04-18T11:01:55.620Z,14.69
2023-04-18T11:02:55.842Z,14.72
2023-04-18T11:03:55.810Z,14.80
2023-04-18T11:04:55.816Z,14.83
2023-04-18T11:05:55.884Z,14.80
2023-04-18T11:06:55.980Z,14.66
2023-04-18T11:07:56.094Z,14.57
2023-04-18T11:08:56.123Z,14.46
2023-04-18T11:09:56.190Z,14.34
2023-04-18T11:10:56.269Z,14.30
2023-04-18T11:11:56.343Z,14.31
2023-04-18T11:12:56.530Z,14.41
2023-04-18T11:13:56.500Z,14.49
2023-04-18T11:14:56.576Z,14.53
2023-04-18T11:15:56.657Z,14.52
2023-04-18T11:16:56.766Z,14.52
2023-04-18T11:17:56.887Z,14.54
2023-04-18T11:18:56.923Z,14.56
2023-04-18T11:19:56.993Z,14.54
2023-04-18T11:20:57.067Z,14.46
2023-04-18T11:21:57.149Z,14.42
2023-04-18T11:22:57.277Z,14.46
2023-04-18T11:23:57.346Z,14.56
2023-04-18T11:24:57.378Z,14.54
2023-04-18T11:25:57.429Z,14.61
2023-04-18T11:26:57.538Z,14.60
2023-04-18T11:27:57.650Z,14.46
2023-04-18T11:28:57.761Z,14.34
2023-04-18T11:29:57.772Z,14.46
2023-04-18T11:30:57.850Z,14.48
2023-04-18T11:31:58.809Z,14.57
2023-04-18T11:32:58.110Z,14.63
2023-04-18T11:33:58.126Z,14.79
2023-04-18T11:34:58.194Z,14.87
2023-04-18T11:35:58.279Z,14.87
2023-04-18T11:36:58.370Z,14.87
2023-04-18T11:37:58.453Z,14.97
2023-04-18T11:38:58.532Z,14.94
2023-04-18T11:39:58.611Z,14.91
2023-04-18T11:40:58.688Z,14.95
2023-04-18T11:41:58.753Z,14.93
2023-04-18T11:42:58.925Z,14.67
2023-04-18T11:43:58.923Z,14.46
2023-04-18T11:44:59.017Z,14.48
2023-04-18T11:45:59.129Z,14.23
2023-04-18T11:46:59.190Z,14.08
2023-04-18T11:47:59.328Z,14.23
2023-04-18T11:48:59.431Z,14.38
2023-04-18T11:49:59.454Z,14.59
2023-04-18T11:50:59.532Z,14.80
2023-04-18T11:51:59.608Z,15.05
2023-04-18T11:52:59.710Z,15.25
2023-04-18T11:53:59.786Z,15.37
2023-04-18T11:54:59.875Z,15.33
2023-04-18T11:55:59.965Z,15.07
2023-04-18T11:57:00.049Z,15.09
2023-04-18T11:58:00.204Z,15.22
2023-04-18T11:59:00.277Z,15.30
2023-04-18T12:00:00.307Z,15.28
2023-04-18T12:01:00.393Z,15.30
2023-04-18T12:02:14.837Z,15.28
2023-04-18T12:03:00.697Z,15.27
2023-04-18T12:04:01.060Z,15.27
2023-04-18T12:05:01.014Z,15.27
2023-04-18T12:06:00.878Z,15.33
2023-04-18T12:07:00.951Z,15.37
2023-04-18T12:08:00.986Z,15.35
2023-04-18T12:09:01.084Z,15.43
2023-04-18T12:10:01.179Z,15.38
2023-04-18T12:11:01.249Z,15.38
2023-04-18T12:12:01.326Z,15.48
2023-04-18T12:13:01.435Z,15.48
2023-04-18T12:14:02.974Z,15.52
2023-04-18T12:15:01.568Z,15.70
2023-04-18T12:16:01.686Z,15.81
2023-04-18T12:17:01.727Z,15.81
2023-04-18T12:18:01.958Z,15.76
2023-04-18T12:19:01.860Z,15.51
2023-04-18T12:20:01.908Z,15.51
2023-04-18T12:21:02.092Z,15.52
2023-04-18T12:22:02.121Z,15.55
2023-04-18T12:23:02.212Z,15.53
2023-04-18T12:24:02.257Z,15.51
2023-04-18T12:25:02.405Z,15.34
2023-04-18T12:26:02.408Z,14.86
2023-04-18T12:27:02.506Z,14.87
2023-04-18T12:28:02.595Z,15.00
2023-04-18T12:29:02.678Z,15.12
2023-04-18T12:30:02.736Z,15.16
2023-04-18T12:31:02.884Z,15.23
2023-04-18T12:32:02.898Z,15.20
2023-04-18T12:33:03.026Z,15.22
2023-04-18T12:34:03.065Z,15.27
2023-04-18T12:35:03.174Z,15.18
2023-04-18T12:36:03.433Z,15.18
2023-04-18T12:37:03.304Z,15.23
2023-04-18T12:38:03.373Z,15.27
2023-04-18T12:39:03.434Z,15.30
2023-04-18T12:40:03.475Z,15.28
2023-04-18T12:41:03.584Z,15.27
2023-04-18T12:42:03.651Z,15.25
2023-04-18T12:43:04.077Z,15.20
2023-04-18T12:44:03.811Z,15.15
2023-04-18T12:45:03.915Z,15.12
2023-04-18T12:46:03.976Z,15.16
2023-04-18T12:47:04.214Z,15.16
2023-04-18T12:48:04.186Z,15.19
2023-04-18T12:49:04.225Z,15.11
2023-04-18T12:50:04.295Z,15.05
2023-04-18T12:51:04.383Z,15.04
2023-04-18T12:52:04.460Z,15.07
2023-04-18T12:53:04.546Z,15.11
2023-04-18T12:54:04.612Z,15.16
2023-04-18T12:55:04.714Z,15.18
2023-04-18T12:56:04.761Z,15.22
2023-04-18T12:57:04.847Z,15.27
2023-04-18T12:58:04.966Z,15.31
2023-04-18T12:59:05.022Z,15.33
2023-04-18T13:00:05.075Z,15.31
2023-04-18T13:01:05.214Z,15.25
2023-04-18T13:02:05.309Z,15.20
2023-04-18T13:03:05.469Z,15.30
2023-04-18T13:04:12.253Z,15.48
2023-04-18T13:05:05.585Z,15.59
2023-04-18T13:06:05.586Z,15.68